Time;durP1;ratioP1;P1;durP2;ratioP2;P2;SDS_P1;SDS_P2;PMS_P1;PMS_P2;Temp;Humidity;BMP_temperature;BMP_pressure;BME280_temperature;BME280_humidity;BME280_pressure;Samples;Min_cycle;Max_cycle;Signal;HPM_P1;HPM_P2
2020/12/02 00:00:58;;;;;;;19.03;10.57;;;;;;;;;;4362498;32;20131;-82
2020/12/02 00:03:36;;;;;;;19.67;10.40;;;;;;;;;;4361174;33;20217;-82
2020/12/02 00:06:02;;;;;;;21.00;10.83;;;;;;;;;;4348827;33;20224;-82
2020/12/02 00:08:38;;;;;;;20.00;10.77;;;;;;;;;;4348952;32;20171;-82
2020/12/02 00:11:08;;;;;;;17.73;10.00;;;;;;;;;;4376988;32;20142;-82
2020/12/02 00:13:35;;;;;;;16.03;9.53;;;;;;;;;;4362875;32;20228;-82
2020/12/02 00:16:00;;;;;;;17.40;9.70;;;;;;;;;;4360993;32;20201;-81
2020/12/02 00:18:26;;;;;;;16.90;10.77;;;;;;;;;;4374049;32;20592;-82
2020/12/02 00:20:51;;;;;;;18.10;10.43;;;;;;;;;;4376498;32;20134;-82
2020/12/02 00:23:17;;;;;;;18.80;11.30;;;;;;;;;;4376992;32;20602;-82
2020/12/02 00:25:42;;;;;;;16.60;10.40;;;;;;;;;;4363471;32;20634;-82
2020/12/02 00:28:10;;;;;;;19.13;10.93;;;;;;;;;;4376532;32;20194;-82
2020/12/02 00:30:35;;;;;;;15.53;10.23;;;;;;;;;;4362731;32;20500;-83
2020/12/02 00:33:08;;;;;;;16.10;10.50;;;;;;;;;;4363280;32;20186;-83
2020/12/02 00:35:33;;;;;;;22.63;11.97;;;;;;;;;;4376971;32;20139;-83
2020/12/02 00:37:58;;;;;;;19.77;11.37;;;;;;;;;;4376383;32;20613;-82
2020/12/02 00:40:24;;;;;;;18.70;10.70;;;;;;;;;;4375327;32;20560;-81
2020/12/02 00:42:49;;;;;;;16.93;10.40;;;;;;;;;;4376135;32;20206;-81
2020/12/02 00:45:17;;;;;;;15.83;9.47;;;;;;;;;;4376033;32;20203;-82
2020/12/02 00:47:43;;;;;;;17.87;10.70;;;;;;;;;;4363107;32;20244;-82
2020/12/02 00:50:09;;;;;;;17.00;10.37;;;;;;;;;;4362954;32;20522;-81
2020/12/02 00:52:34;;;;;;;18.13;11.17;;;;;;;;;;4376395;32;20181;-81
2020/12/02 00:55:00;;;;;;;17.60;10.47;;;;;;;;;;4376638;32;20135;-82
2020/12/02 00:57:29;;;;;;;14.47;9.80;;;;;;;;;;4376450;32;20158;-81
2020/12/02 00:59:56;;;;;;;15.33;9.67;;;;;;;;;;4377030;32;20574;-82
2020/12/02 01:02:40;;;;;;;17.03;10.30;;;;;;;;;;4377090;32;20682;-81
2020/12/02 01:05:10;;;;;;;16.80;10.13;;;;;;;;;;4375886;32;20205;-81
2020/12/02 01:07:38;;;;;;;17.73;10.80;;;;;;;;;;4375801;32;20171;-82
2020/12/02 01:10:04;;;;;;;15.50;9.87;;;;;;;;;;4375751;32;20217;-82
2020/12/02 01:12:30;;;;;;;18.43;10.67;;;;;;;;;;4379110;32;20610;-82
2020/12/02 01:14:55;;;;;;;14.73;9.83;;;;;;;;;;4375833;32;20170;-81
2020/12/02 01:17:20;;;;;;;17.00;10.37;;;;;;;;;;4362385;32;20503;-82
2020/12/02 01:19:45;;;;;;;17.60;10.13;;;;;;;;;;4362090;32;20166;-81
2020/12/02 01:22:17;;;;;;;16.10;9.90;;;;;;;;;;4375879;32;20135;-82
2020/12/02 01:24:49;;;;;;;17.73;10.10;;;;;;;;;;4362168;32;20612;-82
2020/12/02 01:27:33;;;;;;;16.97;10.47;;;;;;;;;;4363086;32;20171;-81
2020/12/02 01:29:59;;;;;;;17.87;11.10;;;;;;;;;;4390521;32;20174;-82
2020/12/02 01:32:27;;;;;;;14.13;9.93;;;;;;;;;;4377630;32;20630;-82
2020/12/02 01:34:53;;;;;;;15.50;10.00;;;;;;;;;;4390611;32;20158;-82
2020/12/02 01:37:28;;;;;;;20.23;10.53;;;;;;;;;;4390702;32;20178;-82
2020/12/02 01:39:59;;;;;;;20.30;11.50;;;;;;;;;;4390354;32;20141;-82
2020/12/02 01:42:24;;;;;;;18.10;10.80;;;;;;;;;;4376800;32;20220;-82
2020/12/02 01:44:50;;;;;;;18.53;10.30;;;;;;;;;;4388793;32;20150;-82
2020/12/02 01:47:34;;;;;;;20.67;10.07;;;;;;;;;;4361708;32;20643;-82
2020/12/02 01:50:18;;;;;;;17.90;10.77;;;;;;;;;;4375239;32;20196;-82
2020/12/02 01:53:06;;;;;;;15.83;10.63;;;;;;;;;;4361675;32;20162;-82
2020/12/02 01:55:55;;;;;;;17.27;10.57;;;;;;;;;;4379722;32;20473;-82
2020/12/02 01:58:39;;;;;;;18.80;11.57;;;;;;;;;;4368927;32;20201;-83
2020/12/02 02:01:13;;;;;;;18.50;10.30;;;;;;;;;;4370234;32;20225;-82
2020/12/02 02:03:39;;;;;;;16.87;10.33;;;;;;;;;;4378575;32;20170;-82
2020/12/02 02:06:19;;;;;;;19.47;11.40;;;;;;;;;;4376361;32;20463;-82
2020/12/02 02:08:48;;;;;;;17.63;11.00;;;;;;;;;;4376595;32;20166;-82
2020/12/02 02:11:15;;;;;;;19.33;11.67;;;;;;;;;;4347524;33;20203;-82
2020/12/02 02:13:59;;;;;;;20.27;11.10;;;;;;;;;;4346601;33;20504;-82
2020/12/02 02:16:28;;;;;;;18.77;10.73;;;;;;;;;;4361656;32;20150;-82
2020/12/02 02:18:57;;;;;;;21.53;10.63;;;;;;;;;;4363153;32;20172;-82
2020/12/02 02:21:29;;;;;;;18.83;11.13;;;;;;;;;;4362738;32;20143;-82
2020/12/02 02:23:55;;;;;;;18.10;10.77;;;;;;;;;;4349587;33;20171;-83
2020/12/02 02:26:23;;;;;;;19.00;11.27;;;;;;;;;;4349064;33;20171;-82
2020/12/02 02:28:58;;;;;;;21.03;11.60;;;;;;;;;;4361799;32;20198;-83
2020/12/02 02:31:25;;;;;;;17.97;11.20;;;;;;;;;;4371452;32;20149;-82
2020/12/02 02:33:50;;;;;;;20.60;11.57;;;;;;;;;;4380713;32;20150;-82
2020/12/02 02:36:16;;;;;;;21.43;11.87;;;;;;;;;;4389921;32;20169;-82
2020/12/02 02:38:42;;;;;;;19.27;10.87;;;;;;;;;;4376095;32;20209;-83
2020/12/02 02:41:08;;;;;;;15.90;10.27;;;;;;;;;;4376353;32;20221;-82
2020/12/02 02:43:34;;;;;;;18.37;10.97;;;;;;;;;;4390509;32;20155;-82
2020/12/02 02:45:59;;;;;;;17.87;10.47;;;;;;;;;;4390061;32;20172;-82
2020/12/02 02:48:25;;;;;;;19.53;11.10;;;;;;;;;;4367749;32;20523;-82
2020/12/02 02:50:50;;;;;;;19.60;10.43;;;;;;;;;;4367207;32;20247;-82
2020/12/02 02:53:17;;;;;;;19.20;10.67;;;;;;;;;;4376021;32;20226;-82
2020/12/02 02:55:42;;;;;;;19.33;11.10;;;;;;;;;;4376601;32;20595;-82
2020/12/02 02:58:07;;;;;;;20.23;10.63;;;;;;;;;;4376044;32;20186;-82
2020/12/02 03:00:33;;;;;;;18.13;11.00;;;;;;;;;;4390209;32;20134;-83
2020/12/02 03:02:59;;;;;;;20.67;11.70;;;;;;;;;;4390140;32;20196;-82
2020/12/02 03:05:25;;;;;;;18.87;11.13;;;;;;;;;;4392948;32;20213;-82
2020/12/02 03:07:52;;;;;;;22.47;11.20;;;;;;;;;;4392997;32;20178;-82
2020/12/02 03:10:20;;;;;;;19.27;11.43;;;;;;;;;;4382451;32;20146;-82
2020/12/02 03:12:45;;;;;;;22.17;11.97;;;;;;;;;;4377680;32;20158;-82
2020/12/02 03:15:11;;;;;;;22.93;12.17;;;;;;;;;;4364145;32;20201;-82
2020/12/02 03:17:36;;;;;;;20.83;11.23;;;;;;;;;;4377316;32;20204;-82
2020/12/02 03:20:07;;;;;;;19.30;11.33;;;;;;;;;;4378287;32;20421;-82
2020/12/02 03:22:34;;;;;;;19.10;11.30;;;;;;;;;;4377611;32;20139;-82
2020/12/02 03:24:59;;;;;;;18.17;10.10;;;;;;;;;;4377954;32;20225;-82
2020/12/02 03:27:25;;;;;;;18.67;10.40;;;;;;;;;;4363885;32;20478;-82
2020/12/02 03:29:53;;;;;;;21.17;11.93;;;;;;;;;;4388971;32;20168;-82
2020/12/02 03:32:19;;;;;;;20.23;11.13;;;;;;;;;;4379267;32;20198;-82
2020/12/02 03:34:47;;;;;;;20.67;11.20;;;;;;;;;;4392910;32;20173;-82
2020/12/02 03:37:13;;;;;;;20.47;11.67;;;;;;;;;;4378456;32;20608;-82
2020/12/02 03:39:38;;;;;;;20.73;12.10;;;;;;;;;;4392375;32;20189;-82
2020/12/02 03:42:24;;;;;;;19.73;11.60;;;;;;;;;;4382473;32;20154;-81
2020/12/02 03:44:49;;;;;;;26.27;11.83;;;;;;;;;;4364124;32;20206;-82
2020/12/02 03:47:15;;;;;;;21.77;12.77;;;;;;;;;;4377048;32;20483;-82
2020/12/02 03:49:40;;;;;;;22.60;11.40;;;;;;;;;;4363244;32;20635;-83
2020/12/02 03:52:05;;;;;;;22.83;12.30;;;;;;;;;;4363382;32;20163;-82
2020/12/02 03:54:31;;;;;;;18.27;10.73;;;;;;;;;;4363506;32;20245;-82
2020/12/02 03:56:56;;;;;;;24.53;12.57;;;;;;;;;;4363471;32;20155;-82
2020/12/02 03:59:21;;;;;;;23.70;12.70;;;;;;;;;;4388273;32;20154;-82
2020/12/02 04:01:49;;;;;;;20.40;12.75;;;;;;;;;;4378723;32;20484;-82
2020/12/02 04:04:14;;;;;;;24.80;13.23;;;;;;;;;;4378193;32;20151;-82
2020/12/02 04:06:39;;;;;;;26.73;13.70;;;;;;;;;;4392407;32;20192;-82
2020/12/02 04:09:05;;;;;;;26.33;13.90;;;;;;;;;;4373279;32;20234;-82
2020/12/02 04:11:30;;;;;;;24.90;13.23;;;;;;;;;;4360591;32;20588;-82
2020/12/02 04:14:11;;;;;;;23.70;13.43;;;;;;;;;;4360458;32;20192;-83
2020/12/02 04:16:36;;;;;;;23.40;13.63;;;;;;;;;;4362413;32;20573;-82
2020/12/02 04:19:02;;;;;;;22.60;13.30;;;;;;;;;;4361018;32;20167;-82
2020/12/02 04:21:27;;;;;;;24.83;13.87;;;;;;;;;;4360423;32;20160;-82
2020/12/02 04:23:53;;;;;;;24.60;13.80;;;;;;;;;;4361043;32;20205;-82
2020/12/02 04:26:18;;;;;;;26.03;13.60;;;;;;;;;;4377426;32;20212;-83
2020/12/02 04:28:43;;;;;;;27.30;13.77;;;;;;;;;;4391726;32;20197;-82
2020/12/02 04:31:09;;;;;;;21.90;13.73;;;;;;;;;;4378329;32;20235;-82
2020/12/02 04:33:34;;;;;;;23.53;12.73;;;;;;;;;;4378170;32;20162;-82
2020/12/02 04:36:00;;;;;;;26.83;13.30;;;;;;;;;;4392213;32;20126;-83
2020/12/02 04:38:25;;;;;;;25.87;13.30;;;;;;;;;;4378427;32;20166;-82
2020/12/02 04:40:50;;;;;;;27.63;14.70;;;;;;;;;;4377923;32;20583;-82
2020/12/02 04:43:19;;;;;;;25.00;14.40;;;;;;;;;;4376062;32;20208;-82
2020/12/02 04:45:45;;;;;;;26.63;13.67;;;;;;;;;;4391814;32;20560;-82
2020/12/02 04:48:15;;;;;;;26.03;14.60;;;;;;;;;;4391349;32;20130;-82
2020/12/02 04:50:41;;;;;;;26.70;13.73;;;;;;;;;;4391454;32;20164;-82
2020/12/02 04:53:14;;;;;;;25.13;13.57;;;;;;;;;;4377598;32;20161;-82
2020/12/02 04:55:41;;;;;;;29.23;14.80;;;;;;;;;;4391255;32;20169;-82
2020/12/02 04:58:14;;;;;;;26.43;13.37;;;;;;;;;;4391826;32;20138;-82
2020/12/02 05:00:39;;;;;;;26.27;13.93;;;;;;;;;;4377648;32;20263;-82
2020/12/02 05:03:06;;;;;;;28.87;13.83;;;;;;;;;;4391139;32;20139;-82
2020/12/02 05:05:36;;;;;;;34.73;15.73;;;;;;;;;;4377394;32;20189;-83
2020/12/02 05:08:15;;;;;;;26.50;14.53;;;;;;;;;;4391732;32;20168;-83
2020/12/02 05:10:40;;;;;;;27.67;14.03;;;;;;;;;;4377250;32;20154;-82
2020/12/02 05:13:10;;;;;;;26.63;13.40;;;;;;;;;;4391297;32;20241;-82
2020/12/02 05:15:36;;;;;;;27.60;14.53;;;;;;;;;;4377184;32;20162;-82
2020/12/02 05:18:04;;;;;;;27.33;13.80;;;;;;;;;;4391062;32;20130;-82
2020/12/02 05:20:31;;;;;;;24.63;13.67;;;;;;;;;;4391240;32;20182;-82
2020/12/02 05:23:07;;;;;;;27.37;14.03;;;;;;;;;;4377364;32;20185;-82
2020/12/02 05:25:34;;;;;;;28.67;13.83;;;;;;;;;;4364674;32;20163;-82
2020/12/02 05:28:11;;;;;;;35.77;16.03;;;;;;;;;;4354960;33;20241;-82
2020/12/02 05:30:36;;;;;;;27.93;14.77;;;;;;;;;;4366588;32;20142;-82
2020/12/02 05:33:02;;;;;;;25.23;13.87;;;;;;;;;;4376679;32;20189;-82
2020/12/02 05:35:28;;;;;;;31.33;15.80;;;;;;;;;;4376278;32;20135;-82
2020/12/02 05:37:54;;;;;;;28.93;14.50;;;;;;;;;;4376773;32;20193;-82
2020/12/02 05:40:24;;;;;;;26.80;14.97;;;;;;;;;;4377312;32;20248;-82
2020/12/02 05:42:54;;;;;;;31.53;13.57;;;;;;;;;;4377586;32;20190;-82
2020/12/02 05:45:30;;;;;;;25.43;14.13;;;;;;;;;;4376807;32;20255;-82
2020/12/02 05:47:56;;;;;;;27.40;15.70;;;;;;;;;;4376550;32;20180;-82
2020/12/02 05:50:25;;;;;;;29.93;14.33;;;;;;;;;;4390931;32;20134;-81
2020/12/02 05:52:56;;;;;;;30.10;14.60;;;;;;;;;;4375639;32;20192;-82
2020/12/02 05:55:24;;;;;;;29.13;14.87;;;;;;;;;;4376140;32;20181;-82
2020/12/02 05:58:20;;;;;;;31.10;17.83;;;;;;;;;;4375643;32;20174;-82
2020/12/02 06:01:15;;;;;;;28.37;14.80;;;;;;;;;;4361450;32;20685;-82
2020/12/02 06:03:41;;;;;;;26.83;14.23;;;;;;;;;;4355376;32;20167;-82
2020/12/02 06:06:07;;;;;;;30.70;16.13;;;;;;;;;;4375644;32;20204;-83
2020/12/02 06:08:41;;;;;;;29.20;15.23;;;;;;;;;;4375466;32;20157;-82
2020/12/02 06:11:16;;;;;;;31.13;14.93;;;;;;;;;;4375042;32;20212;-82
2020/12/02 06:13:42;;;;;;;29.83;14.90;;;;;;;;;;4362210;32;20204;-82
2020/12/02 06:16:12;;;;;;;32.63;15.90;;;;;;;;;;4377877;32;20127;-81
2020/12/02 06:18:38;;;;;;;28.57;14.80;;;;;;;;;;4371242;32;20165;-82
2020/12/02 06:21:03;;;;;;;29.73;15.07;;;;;;;;;;4376367;32;20261;-82
2020/12/02 06:23:45;;;;;;;30.77;15.53;;;;;;;;;;4390190;32;20186;-82
2020/12/02 06:26:11;;;;;;;31.13;15.07;;;;;;;;;;4391101;32;20205;-82
2020/12/02 06:28:36;;;;;;;30.33;15.60;;;;;;;;;;4376439;32;20181;-82
2020/12/02 06:31:13;;;;;;;29.33;15.13;;;;;;;;;;4376313;32;20163;-82
2020/12/02 06:33:39;;;;;;;31.70;15.40;;;;;;;;;;4390010;32;20202;-82
2020/12/02 06:36:25;;;;;;;30.90;15.90;;;;;;;;;;4376060;32;20246;-82
2020/12/02 06:38:52;;;;;;;30.13;14.97;;;;;;;;;;4387477;32;20240;-82
2020/12/02 06:41:31;;;;;;;29.53;15.40;;;;;;;;;;4365754;32;20155;-82
2020/12/02 06:44:03;;;;;;;31.43;14.90;;;;;;;;;;4381205;32;20188;-82
2020/12/02 06:46:40;;;;;;;30.33;15.33;;;;;;;;;;4366707;32;20556;-82
2020/12/02 06:49:05;;;;;;;34.77;16.50;;;;;;;;;;4369165;32;20168;-83
2020/12/02 06:51:31;;;;;;;32.57;16.13;;;;;;;;;;4379118;32;20135;-81
2020/12/02 06:53:56;;;;;;;28.57;14.53;;;;;;;;;;4377893;32;20639;-82
2020/12/02 06:56:21;;;;;;;29.70;15.27;;;;;;;;;;4364119;32;20197;-81
2020/12/02 06:58:59;;;;;;;29.87;16.23;;;;;;;;;;4364253;32;20181;-82
2020/12/02 07:01:25;;;;;;;31.93;15.90;;;;;;;;;;4377639;32;20163;-81
2020/12/02 07:03:52;;;;;;;29.73;15.63;;;;;;;;;;4363956;32;20489;-81
2020/12/02 07:06:21;;;;;;;30.00;15.70;;;;;;;;;;4389267;32;20164;-82
2020/12/02 07:08:49;;;;;;;32.27;16.33;;;;;;;;;;4392440;32;20138;-81
2020/12/02 07:11:19;;;;;;;30.33;15.63;;;;;;;;;;4378698;32;20233;-82
2020/12/02 07:13:45;;;;;;;30.27;14.30;;;;;;;;;;4363976;32;20159;-82
2020/12/02 07:16:17;;;;;;;31.17;15.43;;;;;;;;;;4364601;32;20450;-82
2020/12/02 07:18:45;;;;;;;33.07;16.17;;;;;;;;;;4382609;32;20172;-82
2020/12/02 07:21:39;;;;;;;31.33;15.53;;;;;;;;;;4378147;32;20162;-82
2020/12/02 07:24:13;;;;;;;30.77;14.77;;;;;;;;;;4324329;32;20155;-84
2020/12/02 07:26:38;;;;;;;29.87;15.03;;;;;;;;;;4364115;32;20172;-83
2020/12/02 07:29:13;;;;;;;31.10;16.17;;;;;;;;;;4364125;32;20177;-82
2020/12/02 07:31:57;;;;;;;33.63;16.87;;;;;;;;;;4377574;32;20131;-83
2020/12/02 07:34:36;;;;;;;33.90;15.87;;;;;;;;;;4363967;32;20508;-83
2020/12/02 07:37:08;;;;;;;32.87;16.90;;;;;;;;;;4361828;32;20171;-84
2020/12/02 07:39:33;;;;;;;32.83;15.30;;;;;;;;;;4371877;32;20170;-82
2020/12/02 07:42:19;;;;;;;33.37;16.80;;;;;;;;;;4378013;32;20503;-83
2020/12/02 07:44:49;;;;;;;30.10;14.40;;;;;;;;;;4363563;32;20237;-84
2020/12/02 07:47:15;;;;;;;32.67;15.43;;;;;;;;;;4377769;32;20135;-84
2020/12/02 07:49:45;;;;;;;33.33;16.70;;;;;;;;;;4363102;32;20162;-83
2020/12/02 07:52:21;;;;;;;33.33;16.80;;;;;;;;;;4363565;32;20162;-84
2020/12/02 07:54:51;;;;;;;29.20;14.77;;;;;;;;;;4372842;32;20162;-84
2020/12/02 07:57:17;;;;;;;36.23;16.33;;;;;;;;;;4386881;32;20214;-83
2020/12/02 07:59:46;;;;;;;31.80;16.77;;;;;;;;;;4372337;32;20503;-83
2020/12/02 08:02:16;;;;;;;29.97;15.73;;;;;;;;;;4392612;32;20474;-83
2020/12/02 08:04:52;;;;;;;28.13;15.30;;;;;;;;;;4393339;32;20213;-84
2020/12/02 08:07:17;;;;;;;36.63;16.60;;;;;;;;;;4378090;32;20557;-83
2020/12/02 08:09:45;;;;;;;31.00;16.10;;;;;;;;;;4381891;32;20142;-85
2020/12/02 08:12:12;;;;;;;32.97;15.67;;;;;;;;;;4377595;32;20634;-83
2020/12/02 08:14:43;;;;;;;28.80;15.40;;;;;;;;;;4376651;32;20140;-84
2020/12/02 08:17:19;;;;;;;30.50;15.40;;;;;;;;;;4363046;32;20182;-84
2020/12/02 08:19:48;;;;;;;34.73;17.00;;;;;;;;;;4363480;32;20178;-83
2020/12/02 08:22:36;;;;;;;31.07;16.47;;;;;;;;;;4363278;32;20181;-81
2020/12/02 08:25:11;;;;;;;31.47;15.60;;;;;;;;;;4354820;32;20572;-84
2020/12/02 08:27:36;;;;;;;32.57;16.33;;;;;;;;;;4377127;32;20138;-85
2020/12/02 08:30:17;;;;;;;30.27;15.63;;;;;;;;;;4377350;32;20562;-84
2020/12/02 08:32:50;;;;;;;30.83;15.53;;;;;;;;;;4363399;32;20174;-83
2020/12/02 08:35:37;;;;;;;31.37;15.83;;;;;;;;;;4363911;32;20283;-83
2020/12/02 08:38:04;;;;;;;30.33;15.07;;;;;;;;;;4348799;33;20564;-84
2020/12/02 08:40:40;;;;;;;30.67;15.63;;;;;;;;;;4347736;33;20202;-84
2020/12/02 08:43:31;;;;;;;30.10;15.33;;;;;;;;;;4351213;32;20197;-84
2020/12/02 08:45:56;;;;;;;29.10;14.53;;;;;;;;;;4368006;32;20166;-83
2020/12/02 08:48:22;;;;;;;28.07;14.03;;;;;;;;;;4376138;32;20630;-83
2020/12/02 08:50:48;;;;;;;28.17;15.30;;;;;;;;;;4358428;32;20650;-82
2020/12/02 08:53:20;;;;;;;29.47;14.80;;;;;;;;;;4372740;32;20147;-82
2020/12/02 08:55:46;;;;;;;29.90;15.00;;;;;;;;;;4372994;32;20212;-82
2020/12/02 08:58:11;;;;;;;32.20;15.87;;;;;;;;;;4365466;32;20184;-83
2020/12/02 09:00:36;;;;;;;34.10;16.07;;;;;;;;;;4389138;32;20126;-82
2020/12/02 09:03:03;;;;;;;31.80;15.90;;;;;;;;;;4362432;32;20180;-84
2020/12/02 09:05:29;;;;;;;30.67;16.03;;;;;;;;;;4376343;32;20208;-82
2020/12/02 09:07:54;;;;;;;33.63;16.53;;;;;;;;;;4375729;32;20469;-83
2020/12/02 09:10:19;;;;;;;33.60;16.47;;;;;;;;;;4362716;32;20575;-83
2020/12/02 09:12:44;;;;;;;32.67;15.60;;;;;;;;;;4362941;32;20159;-83
2020/12/02 09:15:10;;;;;;;27.07;15.17;;;;;;;;;;4361579;32;20163;-84
2020/12/02 09:17:35;;;;;;;28.23;15.63;;;;;;;;;;4362093;32;20237;-82
2020/12/02 09:20:00;;;;;;;30.47;15.70;;;;;;;;;;4361679;32;20278;-83
2020/12/02 09:22:25;;;;;;;31.00;14.67;;;;;;;;;;4375677;32;20135;-83
2020/12/02 09:24:54;;;;;;;33.13;16.83;;;;;;;;;;4361854;32;20584;-82
2020/12/02 09:27:19;;;;;;;26.13;13.93;;;;;;;;;;4375525;32;20611;-83
2020/12/02 09:29:45;;;;;;;33.53;16.27;;;;;;;;;;4349320;32;20174;-82
2020/12/02 09:32:10;;;;;;;34.20;16.57;;;;;;;;;;4363846;32;20178;-83
2020/12/02 09:34:36;;;;;;;29.53;14.93;;;;;;;;;;4377248;32;20159;-83
2020/12/02 09:37:07;;;;;;;31.80;15.50;;;;;;;;;;4377096;32;20204;-83
2020/12/02 09:39:42;;;;;;;29.37;15.73;;;;;;;;;;4377307;32;20146;-82
2020/12/02 09:42:23;;;;;;;30.37;16.00;;;;;;;;;;4376008;32;20154;-82
2020/12/02 09:44:56;;;;;;;30.40;15.90;;;;;;;;;;4376937;32;20208;-83
2020/12/02 09:47:27;;;;;;;32.40;15.33;;;;;;;;;;4390743;32;20142;-83
2020/12/02 09:49:56;;;;;;;32.83;16.10;;;;;;;;;;4386461;32;20162;-81
2020/12/02 09:52:27;;;;;;;27.30;15.67;;;;;;;;;;4366647;32;20210;-81
2020/12/02 09:54:52;;;;;;;30.00;14.93;;;;;;;;;;4378654;32;20170;-82
2020/12/02 09:57:19;;;;;;;29.87;14.90;;;;;;;;;;4386347;32;20223;-84
2020/12/02 09:59:45;;;;;;;30.07;15.50;;;;;;;;;;4386896;32;20154;-82
2020/12/02 10:02:20;;;;;;;31.33;14.97;;;;;;;;;;4366640;32;20182;-81
2020/12/02 10:04:48;;;;;;;35.23;16.10;;;;;;;;;;4379166;32;20142;-82
2020/12/02 10:07:20;;;;;;;35.33;17.40;;;;;;;;;;4378931;32;20138;-82
2020/12/02 10:09:52;;;;;;;29.58;14.98;;;;;;;;;;4363962;32;20256;-82
2020/12/02 10:12:33;;;;;;;35.10;16.60;;;;;;;;;;4372950;32;20181;-83
2020/12/02 10:15:27;;;;;;;31.67;15.30;;;;;;;;;;4378580;32;20568;-84
2020/12/02 10:18:11;;;;;;;30.40;14.83;;;;;;;;;;4361034;32;20170;-83
2020/12/02 10:20:46;;;;;;;28.73;15.40;;;;;;;;;;4386490;32;20168;-83
2020/12/02 10:23:21;;;;;;;31.93;15.43;;;;;;;;;;4366991;32;20213;-82
2020/12/02 10:25:53;;;;;;;31.00;15.97;;;;;;;;;;4362020;32;20628;-84
2020/12/02 10:28:28;;;;;;;30.03;14.93;;;;;;;;;;4368786;32;20179;-84
2020/12/02 10:30:56;;;;;;;29.73;14.97;;;;;;;;;;4367487;32;20866;-82
2020/12/02 10:33:42;;;;;;;29.90;14.50;;;;;;;;;;4379108;32;20650;-84
2020/12/02 10:36:07;;;;;;;33.77;15.27;;;;;;;;;;4358316;32;20228;-83
2020/12/02 10:38:38;;;;;;;31.23;15.73;;;;;;;;;;4363717;32;20160;-83
2020/12/02 10:41:16;;;;;;;30.03;15.80;;;;;;;;;;4362434;32;20569;-83
2020/12/02 10:44:07;;;;;;;29.57;15.10;;;;;;;;;;4367527;32;20150;-81
2020/12/02 10:46:41;;;;;;;32.87;15.40;;;;;;;;;;4353924;32;20190;-83
2020/12/02 10:49:17;;;;;;;28.33;15.00;;;;;;;;;;4371051;32;20604;-83
2020/12/02 10:51:45;;;;;;;31.60;14.97;;;;;;;;;;4362780;32;20174;-82
2020/12/02 10:54:21;;;;;;;32.70;15.20;;;;;;;;;;4380483;32;20257;-83
2020/12/02 10:56:54;;;;;;;33.43;16.07;;;;;;;;;;4366080;32;20289;-83
2020/12/02 10:59:24;;;;;;;34.13;16.07;;;;;;;;;;4366439;32;20252;-83
2020/12/02 11:01:49;;;;;;;35.07;16.87;;;;;;;;;;4372703;32;20212;-83
2020/12/02 11:04:16;;;;;;;33.13;16.17;;;;;;;;;;4382601;32;20139;-82
2020/12/02 11:07:00;;;;;;;33.10;16.27;;;;;;;;;;4372212;32;20226;-83
2020/12/02 11:09:25;;;;;;;37.30;17.20;;;;;;;;;;4367700;32;20273;-82
2020/12/02 11:12:03;;;;;;;29.77;15.60;;;;;;;;;;4372981;32;20580;-82
2020/12/02 11:14:53;;;;;;;33.83;15.63;;;;;;;;;;4366680;32;20229;-83
2020/12/02 11:17:22;;;;;;;32.70;16.27;;;;;;;;;;4357818;32;20167;-81
2020/12/02 11:20:03;;;;;;;33.57;16.50;;;;;;;;;;4360508;32;20226;-83
2020/12/02 11:22:54;;;;;;;33.47;16.27;;;;;;;;;;4360987;32;20154;-82
2020/12/02 11:25:19;;;;;;;40.40;17.10;;;;;;;;;;4358500;32;20234;-82
2020/12/02 11:27:46;;;;;;;44.17;18.33;;;;;;;;;;4372229;32;20225;-83
2020/12/02 11:30:23;;;;;;;36.30;17.90;;;;;;;;;;4370312;32;20160;-81
2020/12/02 11:33:04;;;;;;;37.93;17.10;;;;;;;;;;4364716;32;20151;-81
2020/12/02 11:35:39;;;;;;;33.13;16.80;;;;;;;;;;4366438;32;20650;-83
2020/12/02 11:38:10;;;;;;;35.37;16.87;;;;;;;;;;4369590;32;20158;-82
2020/12/02 11:41:14;;;;;;;40.20;17.70;;;;;;;;;;4364087;32;20155;-83
2020/12/02 11:43:41;;;;;;;32.40;17.13;;;;;;;;;;4289214;33;20237;-82
2020/12/02 11:46:09;;;;;;;36.43;17.80;;;;;;;;;;4304228;33;20561;-83
2020/12/02 11:48:40;;;;;;;34.27;15.90;;;;;;;;;;4342231;32;20216;-81
2020/12/02 11:51:22;;;;;;;36.27;17.03;;;;;;;;;;4368976;32;20155;-83
2020/12/02 11:53:50;;;;;;;36.53;16.93;;;;;;;;;;4360035;32;20177;-82
2020/12/02 11:56:21;;;;;;;35.20;16.37;;;;;;;;;;4368843;32;20159;-83
2020/12/02 11:58:49;;;;;;;36.87;17.63;;;;;;;;;;4367644;32;20189;-82
2020/12/02 12:01:23;;;;;;;45.73;20.53;;;;;;;;;;4352391;32;20629;-84
2020/12/02 12:03:51;;;;;;;42.63;20.20;;;;;;;;;;4359462;32;20208;-84
2020/12/02 12:06:22;;;;;;;39.60;17.87;;;;;;;;;;4387826;32;20216;-82
2020/12/02 12:09:07;;;;;;;37.20;17.87;;;;;;;;;;4370702;32;20186;-82
2020/12/02 12:11:34;;;;;;;36.03;18.80;;;;;;;;;;4363173;32;20213;-82
2020/12/02 12:14:18;;;;;;;37.70;17.80;;;;;;;;;;4356424;32;20264;-84
2020/12/02 12:16:59;;;;;;;38.20;17.77;;;;;;;;;;4382315;32;20205;-83
2020/12/02 12:19:27;;;;;;;33.07;16.50;;;;;;;;;;4369237;32;20193;-83
2020/12/02 12:22:11;;;;;;;40.47;16.97;;;;;;;;;;4361997;32;20222;-83
2020/12/02 12:24:36;;;;;;;34.27;15.97;;;;;;;;;;4369469;32;20264;-82
2020/12/02 12:27:01;;;;;;;39.30;16.37;;;;;;;;;;4365415;32;20614;-83
2020/12/02 12:29:26;;;;;;;37.63;17.07;;;;;;;;;;4366253;32;20170;-82
2020/12/02 12:31:56;;;;;;;35.30;16.33;;;;;;;;;;4369612;32;20189;-83
2020/12/02 12:34:30;;;;;;;34.33;16.20;;;;;;;;;;4367391;32;20170;-83
2020/12/02 12:37:00;;;;;;;32.07;15.97;;;;;;;;;;4376733;32;20203;-85
2020/12/02 12:39:29;;;;;;;33.60;17.20;;;;;;;;;;4363325;32;20258;-85
2020/12/02 12:41:57;;;;;;;31.87;15.43;;;;;;;;;;4359064;32;20213;-85
2020/12/02 12:44:31;;;;;;;35.93;16.63;;;;;;;;;;4372071;32;20233;-85
2020/12/02 12:47:16;;;;;;;35.73;18.60;;;;;;;;;;4372062;32;20253;-84
2020/12/02 12:49:41;;;;;;;32.20;16.50;;;;;;;;;;4374636;32;20185;-86
2020/12/02 12:52:07;;;;;;;35.67;16.67;;;;;;;;;;4370068;32;20179;-85
2020/12/02 12:54:34;;;;;;;36.23;17.23;;;;;;;;;;4374874;32;20138;-83
2020/12/02 12:57:03;;;;;;;39.90;19.77;;;;;;;;;;4371685;32;20568;-85
2020/12/02 12:59:31;;;;;;;48.73;23.20;;;;;;;;;;4375630;32;20611;-85
2020/12/02 13:01:56;;;;;;;38.13;19.10;;;;;;;;;;4362026;32;20171;-85
2020/12/02 13:04:23;;;;;;;43.73;21.47;;;;;;;;;;4367761;32;20204;-84
2020/12/02 13:07:07;;;;;;;40.17;19.73;;;;;;;;;;4374207;32;20194;-83
2020/12/02 13:09:35;;;;;;;30.27;15.67;;;;;;;;;;4363364;32;20162;-86
2020/12/02 13:12:23;;;;;;;35.37;16.03;;;;;;;;;;4365612;32;20155;-83
2020/12/02 13:14:54;;;;;;;31.73;15.37;;;;;;;;;;4356954;32;20158;-84
2020/12/02 13:17:22;;;;;;;31.77;16.23;;;;;;;;;;4373718;32;20531;-85
2020/12/02 13:20:04;;;;;;;36.10;16.13;;;;;;;;;;4381845;32;20485;-84
2020/12/02 13:22:41;;;;;;;34.85;15.90;;;;;;;;;;4371543;32;20159;-84
2020/12/02 13:25:11;;;;;;;33.23;16.10;;;;;;;;;;4375444;32;20270;-87
2020/12/02 13:27:49;;;;;;;30.43;15.40;;;;;;;;;;4361641;32;20167;-87
2020/12/02 13:30:17;;;;;;;40.30;16.40;;;;;;;;;;4361714;32;20163;-85
2020/12/02 13:32:57;;;;;;;38.27;16.10;;;;;;;;;;4361617;32;20159;-86
2020/12/02 13:35:23;;;;;;;31.17;15.43;;;;;;;;;;4361622;32;20189;-86
2020/12/02 13:37:55;;;;;;;37.47;16.33;;;;;;;;;;4361978;32;20233;-85
2020/12/02 13:40:23;;;;;;;30.33;15.87;;;;;;;;;;4361244;32;20201;-85
2020/12/02 13:42:48;;;;;;;36.40;16.17;;;;;;;;;;4360594;32;20190;-86
2020/12/02 13:45:19;;;;;;;34.10;15.43;;;;;;;;;;4361536;32;20158;-84
2020/12/02 13:47:46;;;;;;;36.70;16.53;;;;;;;;;;4360472;32;20182;-84
2020/12/02 13:50:14;;;;;;;33.70;16.50;;;;;;;;;;4362815;32;20162;-85
2020/12/02 13:52:50;;;;;;;37.83;15.90;;;;;;;;;;4358979;32;20187;-85
2020/12/02 13:55:24;;;;;;;33.80;16.77;;;;;;;;;;4361207;32;20240;-84
2020/12/02 13:58:02;;;;;;;32.07;16.10;;;;;;;;;;4354338;32;20198;-85
2020/12/02 14:00:56;;;;;;;33.73;16.83;;;;;;;;;;4361712;32;20159;-84
2020/12/02 14:03:29;;;;;;;38.70;17.87;;;;;;;;;;4361228;32;20159;-83
2020/12/02 14:06:19;;;;;;;36.57;17.00;;;;;;;;;;4355267;32;20159;-83
2020/12/02 14:08:44;;;;;;;35.43;17.03;;;;;;;;;;4355981;32;20162;-83
2020/12/02 14:11:10;;;;;;;34.50;15.63;;;;;;;;;;4374290;32;20155;-83
2020/12/02 14:13:36;;;;;;;34.43;16.60;;;;;;;;;;4360429;32;20466;-82
2020/12/02 14:16:02;;;;;;;40.17;18.03;;;;;;;;;;4360975;32;20193;-84
2020/12/02 14:18:27;;;;;;;32.80;16.73;;;;;;;;;;4374579;32;20147;-83
2020/12/02 14:20:53;;;;;;;35.87;16.97;;;;;;;;;;4361162;32;20186;-83
2020/12/02 14:23:19;;;;;;;40.27;18.27;;;;;;;;;;4363411;32;20518;-84
2020/12/02 14:25:44;;;;;;;37.57;17.00;;;;;;;;;;4364659;32;20182;-83
2020/12/02 14:28:11;;;;;;;34.57;17.27;;;;;;;;;;4374384;32;20194;-81
2020/12/02 14:30:37;;;;;;;42.27;19.37;;;;;;;;;;4372097;32;20579;-83
2020/12/02 14:33:05;;;;;;;33.92;17.15;;;;;;;;;;4371538;32;20200;-83
2020/12/02 14:35:32;;;;;;;41.47;17.53;;;;;;;;;;4369165;32;20680;-83